createdAt,value
2023-01-22T00:02:41.346Z,-0.42
2023-01-22T00:05:42.791Z,-0.44
2023-01-22T00:08:44.297Z,-0.45
2023-01-22T00:11:45.700Z,-0.44
2023-01-22T00:14:47.130Z,-0.47
2023-01-22T00:17:48.566Z,-0.47
2023-01-22T00:20:51.971Z,-0.42
2023-01-22T00:23:53.474Z,-0.49
2023-01-22T00:26:54.911Z,-0.44
2023-01-22T00:29:56.297Z,-0.41
2023-01-22T00:32:57.727Z,-0.41
2023-01-22T00:36:07.454Z,-0.43
2023-01-22T00:39:09.706Z,-0.39
2023-01-22T00:42:11.198Z,-0.42
2023-01-22T00:45:14.047Z,-0.40
2023-01-22T00:48:15.511Z,-0.41
2023-01-22T00:51:17.371Z,-0.45
2023-01-22T00:54:18.858Z,-0.41
2023-01-22T00:57:20.270Z,-0.40
2023-01-22T01:00:21.824Z,-0.42
2023-01-22T01:03:23.971Z,-0.42
2023-01-22T01:06:25.379Z,-0.44
2023-01-22T01:09:26.847Z,-0.46
2023-01-22T01:12:32.363Z,-0.46
2023-01-22T01:15:33.955Z,-0.47
2023-01-22T01:18:37.011Z,-0.45
2023-01-22T01:21:38.903Z,-0.46
2023-01-22T01:24:40.340Z,-0.46
2023-01-22T01:27:41.794Z,-0.47
2023-01-22T01:30:44.052Z,-0.47
2023-01-22T01:33:46.301Z,-0.44
2023-01-22T01:36:49.570Z,-0.46
2023-01-22T01:39:51.328Z,-0.50
2023-01-22T01:42:52.793Z,-0.47
2023-01-22T01:45:56.453Z,-0.47
2023-01-22T01:48:57.993Z,-0.46
2023-01-22T01:52:11.057Z,-0.47
2023-01-22T01:55:12.874Z,-0.45
2023-01-22T01:58:15.602Z,-0.42
2023-01-22T02:01:18.149Z,-0.47
2023-01-22T02:04:21.143Z,-0.49
2023-01-22T02:07:22.601Z,-0.49
2023-01-22T02:10:24.945Z,-0.47
2023-01-22T02:13:31.094Z,-0.46
2023-01-22T02:16:33.957Z,-0.47
2023-01-22T02:19:35.518Z,-0.47
2023-01-22T02:22:38.775Z,-0.45
2023-01-22T02:25:40.236Z,-0.46
2023-01-22T02:28:41.622Z,-0.42
2023-01-22T02:31:43.740Z,-0.42
2023-01-22T02:34:45.668Z,-0.41
2023-01-22T02:37:47.114Z,-0.42
2023-01-22T02:40:48.584Z,-0.42
2023-01-22T02:43:53.024Z,-0.39
2023-01-22T02:46:57.294Z,-0.38
2023-01-22T02:49:58.808Z,-0.38
2023-01-22T02:53:00.442Z,-0.38
2023-01-22T02:56:08.121Z,-0.37
2023-01-22T02:59:09.563Z,-0.36
2023-01-22T03:02:11.712Z,-0.33
2023-01-22T03:05:13.320Z,-0.36
2023-01-22T03:08:15.402Z,-0.30
2023-01-22T03:11:16.853Z,-0.29
2023-01-22T03:14:19.117Z,-0.31
2023-01-22T03:17:21.040Z,-0.32
2023-01-22T03:20:22.504Z,-0.30
2023-01-22T03:23:23.913Z,-0.30
2023-01-22T03:26:25.397Z,-0.30
2023-01-22T03:29:26.882Z,-0.30
2023-01-22T03:32:28.389Z,-0.33
2023-01-22T03:35:30.847Z,-0.31
2023-01-22T03:38:53.566Z,-0.32
2023-01-22T03:41:58.152Z,-0.30
2023-01-22T03:45:00.461Z,-0.32
2023-01-22T03:48:02.661Z,-0.32
2023-01-22T03:51:14.974Z,-0.27
2023-01-22T03:54:17.157Z,-0.25
2023-01-22T03:57:18.629Z,-0.26
2023-01-22T04:00:20.850Z,-0.26
2023-01-22T04:03:27.201Z,-0.25
2023-01-22T04:06:29.167Z,-0.27
2023-01-22T04:09:30.661Z,-0.26
2023-01-22T04:12:33.148Z,-0.29
2023-01-22T04:15:34.695Z,-0.26
2023-01-22T04:18:42.508Z,-0.26
2023-01-22T04:22:01.759Z,-0.23
2023-01-22T04:25:04.052Z,-0.22
2023-01-22T04:28:06.125Z,-0.22
2023-01-22T04:31:09.398Z,-0.30
2023-01-22T04:34:29.675Z,-0.25
2023-01-22T04:37:40.554Z,-0.26
2023-01-22T04:40:42.000Z,-0.24
2023-01-22T04:43:43.476Z,-0.23
2023-01-22T04:46:44.928Z,-0.22
2023-01-22T04:49:47.969Z,-0.22
2023-01-22T04:52:54.213Z,-0.18
2023-01-22T04:55:55.773Z,-0.20
2023-01-22T04:58:57.320Z,-0.18
2023-01-22T05:02:00.189Z,-0.19
2023-01-22T05:05:02.032Z,-0.16
2023-01-22T05:08:03.832Z,-0.16
2023-01-22T05:11:07.849Z,-0.13
2023-01-22T05:14:16.648Z,-0.11
2023-01-22T05:17:20.642Z,-0.09
2023-01-22T05:20:22.160Z,-0.11
2023-01-22T05:23:23.740Z,-0.14
2023-01-22T05:26:25.250Z,-0.14
2023-01-22T05:29:30.351Z,-0.13
2023-01-22T05:32:55.987Z,-0.12
2023-01-22T05:36:02.511Z,-0.11
2023-01-22T05:39:04.218Z,-0.14
2023-01-22T05:42:06.621Z,-0.16
2023-01-22T05:45:09.111Z,-0.14
2023-01-22T05:48:17.824Z,-0.12
2023-01-22T05:51:41.821Z,-0.10
2023-01-22T05:54:43.343Z,-0.11
2023-01-22T05:57:46.712Z,-0.09
2023-01-22T06:00:52.441Z,-0.12
2023-01-22T06:03:57.783Z,-0.11
2023-01-22T06:07:00.565Z,-0.11
2023-01-22T06:10:03.569Z,-0.08
2023-01-22T06:13:06.606Z,-0.12
2023-01-22T06:16:09.163Z,-0.13
2023-01-22T06:19:43.045Z,-0.11
2023-01-22T06:22:44.597Z,-0.08
2023-01-22T06:25:52.268Z,-0.06
2023-01-22T06:28:53.813Z,-0.06
2023-01-22T06:31:57.063Z,-0.07
2023-01-22T06:34:58.517Z,-0.06
2023-01-22T06:38:00.141Z,-0.04
2023-01-22T06:41:03.397Z,-0.03
2023-01-22T06:44:06.826Z,-0.05
2023-01-22T06:47:08.280Z,-0.03
2023-01-22T06:50:10.994Z,-0.02
2023-01-22T06:53:12.453Z,-0.02
2023-01-22T06:56:13.879Z,-0.03
2023-01-22T06:59:15.515Z,-0.01
2023-01-22T07:02:18.617Z,0.02
2023-01-22T07:05:20.950Z,0.04
2023-01-22T07:08:22.307Z,0.04
2023-01-22T07:11:23.767Z,0.03
2023-01-22T07:14:36.598Z,0.04
2023-01-22T07:17:38.606Z,-0.04
2023-01-22T07:20:41.628Z,0.00
2023-01-22T07:23:43.123Z,0.01
2023-01-22T07:26:44.493Z,0.01
2023-01-22T07:29:45.848Z,0.02
2023-01-22T07:32:47.756Z,0.02
2023-01-22T07:35:56.083Z,0.05
2023-01-22T07:38:57.470Z,0.02
2023-01-22T07:41:58.890Z,0.06
2023-01-22T07:45:05.243Z,0.04
2023-01-22T07:48:06.784Z,0.05
2023-01-22T07:51:08.204Z,0.08
2023-01-22T07:54:09.686Z,0.09
2023-01-22T07:57:11.042Z,0.11
2023-01-22T08:00:13.654Z,0.13
2023-01-22T08:03:15.210Z,0.13
2023-01-22T08:06:18.616Z,0.15
2023-01-22T08:09:19.895Z,0.10
2023-01-22T08:12:21.229Z,0.16
2023-01-22T08:15:22.837Z,0.19
2023-01-22T08:18:24.180Z,0.23
2023-01-22T08:21:25.541Z,0.22
2023-01-22T08:24:26.879Z,0.25
2023-01-22T08:27:28.236Z,0.28
2023-01-22T08:30:29.560Z,0.26
2023-01-22T08:33:33.065Z,0.27
2023-01-22T08:36:34.407Z,0.32
2023-01-22T08:39:35.752Z,0.32
2023-01-22T08:42:37.217Z,0.31
2023-01-22T08:45:38.918Z,0.34
2023-01-22T08:48:40.640Z,0.35
2023-01-22T08:51:42.032Z,0.38
2023-01-22T08:54:43.368Z,0.41
2023-01-22T08:57:44.730Z,0.45
2023-01-22T09:00:46.104Z,0.47
2023-01-22T09:03:47.478Z,0.44
2023-01-22T09:06:48.911Z,0.45
2023-01-22T09:09:50.268Z,0.44
2023-01-22T09:12:51.618Z,0.48
2023-01-22T09:15:58.338Z,0.50
2023-01-22T09:18:59.892Z,0.49
2023-01-22T09:22:01.222Z,0.50
2023-01-22T09:25:02.630Z,0.54
2023-01-22T09:28:04.017Z,0.54
2023-01-22T09:31:05.411Z,0.56
2023-01-22T09:34:06.763Z,0.57
2023-01-22T09:37:11.171Z,0.61
2023-01-22T09:40:36.280Z,0.62
2023-01-22T09:43:46.123Z,0.64
2023-01-22T09:46:53.220Z,0.66
2023-01-22T09:50:02.582Z,0.70
2023-01-22T09:53:07.134Z,0.73
2023-01-22T09:56:19.873Z,0.76
2023-01-22T09:59:39.008Z,0.77
2023-01-22T10:02:54.964Z,0.80
2023-01-22T10:06:04.760Z,0.84
2023-01-22T10:09:20.356Z,0.87
2023-01-22T10:12:22.118Z,0.92
2023-01-22T10:15:24.494Z,0.98
2023-01-22T10:18:55.784Z,1.01
2023-01-22T10:22:04.738Z,1.05
2023-01-22T10:25:12.430Z,1.09
2023-01-22T10:28:15.612Z,1.13
2023-01-22T10:31:22.579Z,1.22
2023-01-22T10:34:27.628Z,1.24
2023-01-22T10:37:29.669Z,1.30
2023-01-22T10:40:39.721Z,1.34
2023-01-22T10:43:41.096Z,1.36
2023-01-22T10:46:42.955Z,1.42
2023-01-22T10:49:44.305Z,1.46
2023-01-22T10:52:51.287Z,1.56
2023-01-22T10:55:56.344Z,1.60
2023-01-22T10:59:01.568Z,1.67
2023-01-22T11:02:14.905Z,1.74
2023-01-22T11:05:22.071Z,1.79
2023-01-22T11:08:26.074Z,1.86
2023-01-22T11:11:35.591Z,1.91
2023-01-22T11:14:38.871Z,1.96
2023-01-22T11:17:49.764Z,2.00
2023-01-22T11:20:56.854Z,2.05
2023-01-22T11:24:06.036Z,2.13
2023-01-22T11:27:35.060Z,2.16
2023-01-22T11:30:57.345Z,2.21
2023-01-22T11:34:07.200Z,2.28
2023-01-22T11:37:19.235Z,2.31
2023-01-22T11:40:31.128Z,2.27
2023-01-22T11:44:09.993Z,2.23
2023-01-22T11:47:29.779Z,2.21
2023-01-22T11:50:42.181Z,2.23
2023-01-22T11:53:55.744Z,2.21
2023-01-22T11:57:15.876Z,2.10
2023-01-22T12:00:35.912Z,2.16
2023-01-22T12:04:11.527Z,2.19
2023-01-22T12:07:36.838Z,2.24
2023-01-22T12:11:14.469Z,2.28
2023-01-22T12:14:37.668Z,2.31
2023-01-22T12:18:17.977Z,2.21
2023-01-22T12:21:22.421Z,2.14
2023-01-22T12:24:32.907Z,2.10
2023-01-22T12:27:51.736Z,2.07
2023-01-22T12:31:13.358Z,2.04
2023-01-22T12:34:27.538Z,2.03
2023-01-22T12:37:39.681Z,2.05
2023-01-22T12:40:52.525Z,2.00
2023-01-22T12:43:56.741Z,1.96
2023-01-22T12:47:36.556Z,1.92
2023-01-22T12:50:49.356Z,1.94
2023-01-22T12:53:50.717Z,1.99
2023-01-22T12:56:55.349Z,2.01
2023-01-22T12:59:57.998Z,2.02
2023-01-22T13:02:59.928Z,1.95
2023-01-22T13:06:04.165Z,1.96
2023-01-22T13:09:22.007Z,1.99
2023-01-22T13:12:36.001Z,1.99
2023-01-22T13:15:38.684Z,1.96
2023-01-22T13:18:44.212Z,1.97
2023-01-22T13:21:46.223Z,1.95
2023-01-22T13:24:53.982Z,1.96
2023-01-22T13:27:57.217Z,1.94
2023-01-22T13:31:06.892Z,1.95
2023-01-22T13:34:15.267Z,1.95
2023-01-22T13:37:26.056Z,1.97
2023-01-22T13:40:33.052Z,1.94
2023-01-22T13:43:40.521Z,1.95
2023-01-22T13:46:41.962Z,1.93
2023-01-22T13:49:43.636Z,1.95
2023-01-22T13:52:45.112Z,2.07
2023-01-22T13:55:46.537Z,-146.68
2023-01-22T13:58:49.492Z,-146.68
2023-01-22T14:01:51.660Z,-146.68
2023-01-22T14:04:53.074Z,-146.68
2023-01-22T14:08:12.215Z,-146.68
2023-01-22T14:11:13.854Z,-146.68
2023-01-22T14:14:17.396Z,-146.68
2023-01-22T14:17:31.291Z,-146.68
2023-01-22T14:20:32.677Z,-146.68
2023-01-22T14:23:35.332Z,-146.68
2023-01-22T14:26:37.038Z,-146.68
2023-01-22T14:29:38.527Z,-146.68
2023-01-22T14:32:44.666Z,-146.68
2023-01-22T14:35:46.357Z,-146.68
2023-01-22T14:38:47.950Z,-146.68
2023-01-22T14:41:49.632Z,-146.68
2023-01-22T14:44:51.011Z,-146.68
2023-01-22T14:47:53.588Z,-146.68
2023-01-22T14:50:55.064Z,-146.68
2023-01-22T14:53:57.611Z,-146.68
2023-01-22T14:56:58.962Z,-146.68
2023-01-22T15:00:02.090Z,-146.68
2023-01-22T15:03:03.798Z,-146.68
2023-01-22T15:06:05.462Z,-146.68
2023-01-22T15:09:07.034Z,-146.68
2023-01-22T15:12:08.411Z,-146.68
2023-01-22T15:15:10.311Z,-146.68
2023-01-22T15:18:11.688Z,-146.68
2023-01-22T15:21:13.253Z,-146.68
2023-01-22T15:24:14.734Z,-146.68
2023-01-22T15:27:16.100Z,-146.68
2023-01-22T15:30:17.826Z,-146.68
2023-01-22T15:33:20.292Z,-146.68
2023-01-22T15:36:21.640Z,-146.68
2023-01-22T15:39:23.031Z,-146.68
2023-01-22T15:42:24.379Z,-146.68
2023-01-22T15:45:25.805Z,-146.68
2023-01-22T15:48:27.180Z,-146.68
2023-01-22T15:51:29.334Z,-146.68
2023-01-22T15:54:30.985Z,-146.68
2023-01-22T15:57:32.481Z,-146.68
2023-01-22T16:00:33.901Z,-146.68
2023-01-22T16:03:35.337Z,-146.68
2023-01-22T16:06:37.288Z,-146.68
2023-01-22T16:09:38.776Z,-146.68
2023-01-22T16:12:40.143Z,-146.68
2023-01-22T16:15:41.525Z,-146.68
2023-01-22T16:18:43.853Z,-146.68
2023-01-22T16:21:45.210Z,-146.68
2023-01-22T16:24:46.585Z,-146.68
2023-01-22T16:27:47.922Z,-146.68
2023-01-22T16:30:49.303Z,-146.68
2023-01-22T16:34:07.099Z,-146.68
2023-01-22T16:37:08.466Z,-146.68
2023-01-22T16:40:10.475Z,-146.68
2023-01-22T16:43:11.808Z,-146.68
2023-01-22T16:46:14.994Z,-146.68
2023-01-22T16:49:17.829Z,-146.68
2023-01-22T16:52:22.700Z,-146.68
2023-01-22T16:55:24.490Z,-146.68
2023-01-22T16:58:25.828Z,-146.68
2023-01-22T17:01:29.674Z,-146.68
2023-01-22T17:04:31.780Z,-146.68
2023-01-22T17:07:34.387Z,-146.68
2023-01-22T17:10:36.439Z,-146.68
2023-01-22T17:13:37.799Z,-146.68
2023-01-22T17:16:39.152Z,-146.68
2023-01-22T17:19:40.508Z,-146.68
2023-01-22T17:22:41.881Z,-146.68
2023-01-22T17:25:43.240Z,-146.68
2023-01-22T17:28:45.537Z,-146.68
2023-01-22T17:31:47.475Z,-146.68
2023-01-22T17:34:48.938Z,-146.68
2023-01-22T17:37:50.264Z,-146.68
2023-01-22T17:40:51.628Z,-146.68
2023-01-22T17:43:53.792Z,-146.68
2023-01-22T17:46:55.967Z,-146.68
2023-01-22T17:49:57.321Z,-146.68
2023-01-22T17:52:58.735Z,-146.68
2023-01-22T17:56:06.153Z,-146.68
2023-01-22T17:59:07.514Z,-146.68
2023-01-22T18:02:10.557Z,-146.68
2023-01-22T18:05:11.931Z,-146.68
2023-01-22T18:08:13.301Z,-146.68
2023-01-22T18:11:20.026Z,-146.68
2023-01-22T18:14:21.363Z,-146.68
2023-01-22T18:17:22.689Z,-146.68
2023-01-22T18:20:24.042Z,-146.68
2023-01-22T18:23:25.444Z,-146.68
2023-01-22T18:26:27.426Z,-146.68
2023-01-22T18:29:28.933Z,-146.68
2023-01-22T18:32:30.266Z,-146.68
2023-01-22T18:35:31.627Z,-146.68
2023-01-22T18:38:33.374Z,-146.68
2023-01-22T18:41:36.067Z,-146.68
2023-01-22T18:44:38.862Z,-146.68
2023-01-22T18:47:40.268Z,-146.68
2023-01-22T18:50:42.355Z,-146.68
2023-01-22T18:53:43.749Z,-146.68
2023-01-22T18:56:45.863Z,-146.68
2023-01-22T18:59:47.236Z,-146.68
2023-01-22T19:02:56.746Z,-146.68
2023-01-22T19:05:58.154Z,-146.68
2023-01-22T19:09:00.935Z,-146.68
2023-01-22T19:12:02.433Z,-146.68
2023-01-22T19:15:04.073Z,-146.68
2023-01-22T19:18:05.748Z,-146.68
2023-01-22T19:21:10.953Z,-146.68
2023-01-22T19:24:14.030Z,-146.68
2023-01-22T19:27:15.509Z,-146.68
2023-01-22T19:30:17.964Z,-146.68
2023-01-22T19:33:19.312Z,-146.68
2023-01-22T19:36:22.589Z,-146.68
2023-01-22T19:39:25.010Z,-146.68
2023-01-22T19:42:26.369Z,-146.68
2023-01-22T19:45:27.734Z,-146.68
2023-01-22T19:48:29.122Z,-146.68
2023-01-22T19:51:30.640Z,-146.68
2023-01-22T19:54:32.107Z,-146.68
2023-01-22T19:57:33.519Z,-146.68
2023-01-22T20:00:34.965Z,-146.68
2023-01-22T20:03:36.451Z,-146.68
2023-01-22T20:06:38.697Z,-146.68
2023-01-22T20:09:40.066Z,-146.68
2023-01-22T20:12:41.974Z,-146.68
2023-01-22T20:15:43.406Z,-146.68
2023-01-22T20:18:45.054Z,-146.68
2023-01-22T20:21:46.455Z,-146.68
2023-01-22T20:24:47.852Z,-146.68
2023-01-22T20:27:49.327Z,-146.68
2023-01-22T20:30:58.870Z,-146.68
2023-01-22T20:34:00.375Z,-146.68
2023-01-22T20:37:01.840Z,-146.68
2023-01-22T20:40:03.430Z,-146.68
2023-01-22T20:43:05.584Z,-146.68
2023-01-22T20:46:11.521Z,-146.68
2023-01-22T20:49:13.052Z,-146.68
2023-01-22T20:52:14.570Z,-146.68
2023-01-22T20:55:16.030Z,-146.68
2023-01-22T20:58:17.479Z,-146.68
2023-01-22T21:01:18.937Z,-146.68
2023-01-22T21:04:20.870Z,-146.68
2023-01-22T21:07:22.307Z,-146.68
2023-01-22T21:10:23.698Z,-146.68
2023-01-22T21:13:25.873Z,-146.68
2023-01-22T21:16:33.366Z,-146.68
2023-01-22T21:19:35.136Z,-146.68
2023-01-22T21:22:36.553Z,-146.68
2023-01-22T21:25:37.957Z,-146.68
2023-01-22T21:28:39.356Z,-146.68
2023-01-22T21:31:41.564Z,-146.68
2023-01-22T21:34:43.051Z,-146.68
2023-01-22T21:37:44.482Z,-146.68
2023-01-22T21:40:45.929Z,-146.68
2023-01-22T21:43:47.649Z,-146.68
2023-01-22T21:46:49.184Z,-146.68
2023-01-22T21:49:50.619Z,-146.68
2023-01-22T21:52:53.332Z,-146.68
2023-01-22T21:55:54.824Z,-146.68
2023-01-22T21:58:56.207Z,-146.68
2023-01-22T22:01:57.851Z,-146.68
2023-01-22T22:04:59.317Z,-146.68
2023-01-22T22:08:00.731Z,-146.68
2023-01-22T22:11:02.518Z,-146.68
2023-01-22T22:14:03.968Z,-146.68
2023-01-22T22:17:05.402Z,-146.68
2023-01-22T22:20:07.451Z,-146.68
2023-01-22T22:23:08.835Z,-146.68
2023-01-22T22:26:10.788Z,-146.68
2023-01-22T22:29:12.227Z,-146.68
2023-01-22T22:32:13.604Z,-146.68
2023-01-22T22:35:15.092Z,-146.68
2023-01-22T22:38:16.463Z,-146.68
2023-01-22T22:41:29.877Z,-146.68
2023-01-22T22:44:31.291Z,-146.68
2023-01-22T22:47:36.107Z,-146.68
2023-01-22T22:50:37.561Z,-146.68
2023-01-22T22:53:39.932Z,-146.68
2023-01-22T22:56:41.785Z,-146.68
2023-01-22T22:59:43.182Z,-146.68
2023-01-22T23:02:44.618Z,-146.68
2023-01-22T23:05:46.018Z,-146.68
2023-01-22T23:08:49.531Z,-146.68
2023-01-22T23:11:50.858Z,-146.68
2023-01-22T23:14:52.279Z,-146.68
2023-01-22T23:17:55.253Z,-146.68
2023-01-22T23:20:56.754Z,-146.68
2023-01-22T23:23:58.193Z,-146.68
2023-01-22T23:26:59.583Z,-146.68
2023-01-22T23:30:01.032Z,-146.68
2023-01-22T23:33:02.606Z,-146.68
2023-01-22T23:36:07.164Z,-146.68
2023-01-22T23:39:08.611Z,-146.68
2023-01-22T23:42:10.004Z,-146.68
2023-01-22T23:45:11.887Z,-146.68
2023-01-22T23:48:13.518Z,-146.68
2023-01-22T23:51:16.089Z,-146.68
2023-01-22T23:54:17.681Z,-146.68
2023-01-22T23:57:19.108Z,-146.68
